createdAt,value
2018-07-20T00:00:53.221Z,104.073
2018-07-20T00:01:58.155Z,103.822
2018-07-20T00:03:03.019Z,103.822
2018-07-20T00:04:08.489Z,105.418
2018-07-20T00:05:14.016Z,104.2421
2018-07-20T00:06:19.166Z,105.418
2018-07-20T00:07:24.862Z,104.2421
2018-07-20T00:08:30.014Z,104.2421
2018-07-20T00:09:35.700Z,104.073
2018-07-20T00:10:40.847Z,104.4932
2018-07-20T00:11:46.196Z,104.073
2018-07-20T00:12:51.935Z,105.1669
2018-07-20T00:13:57.078Z,104.2421
2018-07-20T00:15:02.367Z,105.418
2018-07-20T00:16:07.211Z,104.7468
2018-07-20T00:17:12.430Z,105.1669
2018-07-20T00:18:17.620Z,104.2421
2018-07-20T00:19:23.186Z,104.7468
2018-07-20T00:20:28.062Z,105.1669
2018-07-20T00:21:33.937Z,104.073
2018-07-20T00:22:38.801Z,105.1669
2018-07-20T00:23:44.002Z,105.418
2018-07-20T00:24:49.738Z,104.7468
2018-07-20T00:25:54.329Z,104.2421
2018-07-20T00:26:59.572Z,105.1669
2018-07-20T00:28:05.007Z,104.2421
2018-07-20T00:29:09.903Z,105.1669
2018-07-20T00:30:14.788Z,105.1669
2018-07-20T00:31:19.808Z,105.418
2018-07-20T00:32:25.018Z,104.4932
2018-07-20T00:33:31.110Z,105.418
2018-07-20T00:34:36.539Z,104.7468
2018-07-20T00:35:41.405Z,104.7468
2018-07-20T00:36:47.176Z,105.1669
2018-07-20T00:37:52.333Z,104.7468
2018-07-20T00:38:57.676Z,105.6716
2018-07-20T00:40:02.923Z,105.9226
2018-07-20T00:41:07.847Z,105.418
2018-07-20T00:42:13.300Z,105.418
2018-07-20T00:43:18.934Z,105.9226
2018-07-20T00:44:23.519Z,106.1763
2018-07-20T00:45:28.970Z,106.681
2018-07-20T00:46:34.411Z,105.9226
2018-07-20T00:47:39.275Z,105.9226
2018-07-20T00:48:44.560Z,106.681
2018-07-20T00:49:49.993Z,105.418
2018-07-20T00:50:55.172Z,106.681
2018-07-20T00:52:00.603Z,106.932
2018-07-20T00:53:06.132Z,106.681
2018-07-20T00:54:11.289Z,106.681
2018-07-20T00:55:16.795Z,105.9226
2018-07-20T00:56:21.665Z,106.681
2018-07-20T00:57:41.207Z,106.681
2018-07-20T00:58:46.636Z,106.681
2018-07-20T00:59:52.097Z,106.4273
2018-07-20T01:00:57.999Z,106.932
2018-07-20T01:02:02.585Z,106.932
2018-07-20T01:03:08.009Z,106.681
2018-07-20T01:04:13.807Z,107.1857
2018-07-20T01:05:18.983Z,106.681
2018-07-20T01:06:25.011Z,107.1857
2018-07-20T01:07:30.853Z,106.932
2018-07-20T01:08:36.361Z,107.6058
2018-07-20T01:09:41.854Z,107.6058
2018-07-20T01:10:46.535Z,108.1105
2018-07-20T01:11:51.794Z,107.3521
2018-07-20T01:12:57.349Z,107.3521
2018-07-20T01:14:02.226Z,107.3521
2018-07-20T01:15:07.390Z,107.1857
2018-07-20T01:16:12.931Z,107.1857
2018-07-20T01:17:18.329Z,107.3521
2018-07-20T01:18:23.534Z,108.1105
2018-07-20T01:19:29.180Z,107.8568
2018-07-20T01:20:34.324Z,107.1857
2018-07-20T01:21:39.441Z,106.932
2018-07-20T01:22:44.586Z,106.932
2018-07-20T01:23:50.053Z,107.3521
2018-07-20T01:24:55.750Z,107.3521
2018-07-20T01:26:01.179Z,107.3521
2018-07-20T01:27:06.361Z,107.8568
2018-07-20T01:28:11.817Z,107.8568
2018-07-20T01:29:17.244Z,108.3615
2018-07-20T01:30:22.672Z,107.6058
2018-07-20T01:31:27.948Z,108.1105
2018-07-20T01:32:33.377Z,108.1105
2018-07-20T01:33:39.076Z,108.1105
2018-07-20T01:34:44.217Z,108.1105
2018-07-20T01:35:49.644Z,107.8568
2018-07-20T01:36:55.045Z,108.3615
2018-07-20T01:38:00.334Z,108.3615
2018-07-20T01:39:04.956Z,108.1105
2018-07-20T01:40:10.499Z,107.8568
2018-07-20T01:41:15.744Z,108.8662
2018-07-20T01:42:21.174Z,108.8662
2018-07-20T01:43:41.051Z,108.3615
2018-07-20T01:44:45.929Z,109.6245
2018-07-20T01:45:51.392Z,109.1199
2018-07-20T01:46:56.836Z,108.6152
2018-07-20T01:48:01.993Z,109.1199
2018-07-20T01:49:06.833Z,110.1292
2018-07-20T01:50:12.261Z,109.3709
2018-07-20T01:51:17.434Z,110.1292
2018-07-20T01:52:22.573Z,109.8756
2018-07-20T01:53:27.429Z,110.1292
2018-07-20T01:54:33.560Z,109.8756
2018-07-20T01:55:39.009Z,110.2957
2018-07-20T01:56:44.504Z,109.8756
2018-07-20T01:57:50.333Z,109.8756
2018-07-20T01:58:55.528Z,109.8756
2018-07-20T02:00:01.058Z,109.8756
2018-07-20T02:01:06.282Z,110.5493
2018-07-20T02:02:11.250Z,110.803
2018-07-20T02:03:16.694Z,108.6152
2018-07-20T02:04:22.442Z,109.6245
2018-07-20T02:05:27.317Z,110.2957
2018-07-20T02:06:32.719Z,109.6245
2018-07-20T02:07:37.901Z,110.2957
2018-07-20T02:08:43.092Z,110.803
2018-07-20T02:09:48.376Z,110.1292
2018-07-20T02:10:53.833Z,110.1292
2018-07-20T02:11:59.060Z,110.1292
2018-07-20T02:13:04.351Z,110.5493
2018-07-20T02:14:09.839Z,110.1292
2018-07-20T02:15:14.993Z,110.2957
2018-07-20T02:16:20.539Z,110.5493
2018-07-20T02:17:24.842Z,110.1292
2018-07-20T02:18:30.394Z,110.2957
2018-07-20T02:19:35.257Z,110.1292
2018-07-20T02:20:40.486Z,109.8756
2018-07-20T02:21:46.050Z,109.8756
2018-07-20T02:22:51.209Z,110.5493
2018-07-20T02:23:56.392Z,110.1292
2018-07-20T02:25:01.935Z,110.803
2018-07-20T02:26:07.126Z,110.2957
2018-07-20T02:27:12.300Z,110.2957
2018-07-20T02:28:17.470Z,109.8756
2018-07-20T02:29:22.667Z,110.2957
2018-07-20T02:30:28.620Z,110.1292
2018-07-20T02:31:34.185Z,110.5493
2018-07-20T02:32:39.280Z,110.2957
2018-07-20T02:33:44.405Z,110.2957
2018-07-20T02:34:49.085Z,110.803
2018-07-20T02:35:53.667Z,110.2957
2018-07-20T02:36:59.212Z,110.1292
2018-07-20T02:38:04.705Z,110.1292
2018-07-20T02:39:09.566Z,110.2957
2018-07-20T02:40:15.065Z,110.5493
2018-07-20T02:41:19.938Z,111.3051
2018-07-20T02:42:40.455Z,110.803
2018-07-20T02:43:45.878Z,110.2957
2018-07-20T02:44:51.305Z,110.5493
2018-07-20T02:45:56.813Z,111.3051
2018-07-20T02:47:02.035Z,110.803
2018-07-20T02:48:06.926Z,111.054
2018-07-20T02:49:12.412Z,111.3051
2018-07-20T02:50:17.577Z,111.5587
2018-07-20T02:51:22.717Z,111.054
2018-07-20T02:52:28.493Z,112.0634
2018-07-20T02:53:33.937Z,112.3171
2018-07-20T02:54:39.839Z,111.3051
2018-07-20T02:55:45.405Z,111.054
2018-07-20T02:56:50.274Z,111.3051
2018-07-20T02:57:55.989Z,112.3171
2018-07-20T02:59:01.204Z,111.5587
2018-07-20T03:00:06.346Z,111.8124
2018-07-20T03:01:11.912Z,111.5587
2018-07-20T03:02:17.141Z,111.3051
2018-07-20T03:03:22.004Z,111.054
2018-07-20T03:04:27.973Z,112.3171
2018-07-20T03:05:33.465Z,111.5587
2018-07-20T03:06:38.588Z,111.8124
2018-07-20T03:07:43.727Z,111.8124
2018-07-20T03:08:49.210Z,111.5587
2018-07-20T03:09:54.479Z,111.5587
2018-07-20T03:10:59.366Z,111.054
2018-07-20T03:12:03.953Z,112.0634
2018-07-20T03:13:09.367Z,111.054
2018-07-20T03:14:14.794Z,111.054
2018-07-20T03:15:19.936Z,111.054
2018-07-20T03:16:25.083Z,111.054
2018-07-20T03:17:30.238Z,111.8124
2018-07-20T03:18:35.688Z,111.3051
2018-07-20T03:19:40.587Z,110.803
2018-07-20T03:20:45.782Z,111.054
2018-07-20T03:21:51.166Z,111.054
2018-07-20T03:22:56.594Z,111.5587
2018-07-20T03:24:01.880Z,111.8124
2018-07-20T03:25:07.339Z,111.8124
2018-07-20T03:26:12.769Z,111.8124
2018-07-20T03:27:17.966Z,111.054
2018-07-20T03:28:23.081Z,111.8124
2018-07-20T03:29:28.285Z,111.3051
2018-07-20T03:30:33.901Z,112.0634
2018-07-20T03:31:38.210Z,111.5587
2018-07-20T03:32:44.219Z,111.5587
2018-07-20T03:33:49.864Z,111.3051
2018-07-20T03:34:55.295Z,112.5681
2018-07-20T03:36:00.149Z,112.0634
2018-07-20T03:37:05.836Z,111.5587
2018-07-20T03:38:11.279Z,112.5681
2018-07-20T03:39:16.419Z,112.5681
2018-07-20T03:40:21.919Z,112.0634
2018-07-20T03:41:27.408Z,112.0634
2018-07-20T03:42:33.287Z,112.9882
2018-07-20T03:43:38.478Z,111.3051
2018-07-20T03:44:43.328Z,112.0634
2018-07-20T03:45:48.605Z,112.3171
2018-07-20T03:46:54.239Z,112.0634
2018-07-20T03:47:59.123Z,112.3171
2018-07-20T03:49:05.178Z,112.8217
2018-07-20T03:50:09.861Z,112.5681
2018-07-20T03:51:15.005Z,112.8217
2018-07-20T03:52:20.736Z,112.5681
2018-07-20T03:53:26.247Z,112.0634
2018-07-20T03:54:31.531Z,112.8217
2018-07-20T03:55:36.983Z,112.0634
2018-07-20T03:56:42.184Z,112.5681
2018-07-20T03:57:47.290Z,112.5681
2018-07-20T03:58:52.448Z,111.8124
2018-07-20T03:59:57.705Z,113.662
2018-07-20T04:01:03.483Z,112.8217
2018-07-20T04:02:08.932Z,112.9882
2018-07-20T04:03:14.396Z,112.9882
2018-07-20T04:04:19.996Z,111.8124
2018-07-20T04:05:25.423Z,112.3171
2018-07-20T04:06:31.352Z,113.662
2018-07-20T04:07:35.937Z,113.662
2018-07-20T04:08:41.434Z,113.4929
2018-07-20T04:09:47.280Z,113.9157
2018-07-20T04:10:52.454Z,113.9157
2018-07-20T04:11:57.651Z,113.4929
2018-07-20T04:13:02.525Z,113.4929
2018-07-20T04:14:07.384Z,113.4929
2018-07-20T04:15:11.999Z,114.1667
2018-07-20T04:16:17.108Z,113.662
2018-07-20T04:17:22.592Z,114.1667
2018-07-20T04:18:28.545Z,114.1667
2018-07-20T04:19:33.774Z,114.1667
2018-07-20T04:20:38.926Z,113.9157
2018-07-20T04:21:44.351Z,113.662
2018-07-20T04:22:49.206Z,114.1667
2018-07-20T04:23:54.703Z,114.4203
2018-07-20T04:25:00.258Z,113.9157
2018-07-20T04:26:05.729Z,113.662
2018-07-20T04:27:10.892Z,114.1667
2018-07-20T04:28:16.582Z,115.1787
2018-07-20T04:29:21.456Z,113.662
2018-07-20T04:30:41.673Z,115.4297
2018-07-20T04:31:47.201Z,114.6714
2018-07-20T04:32:52.398Z,115.1787
2018-07-20T04:33:57.796Z,115.1787
2018-07-20T04:35:02.661Z,115.1787
2018-07-20T04:36:07.246Z,114.925
2018-07-20T04:37:12.689Z,115.1787
2018-07-20T04:38:18.161Z,114.6714
2018-07-20T04:39:23.030Z,114.6714
2018-07-20T04:40:29.018Z,115.1787
2018-07-20T04:41:33.872Z,115.4297
2018-07-20T04:42:39.559Z,114.6714
2018-07-20T04:43:44.777Z,115.4297
2018-07-20T04:44:50.259Z,114.6714
2018-07-20T04:45:55.945Z,114.4203
2018-07-20T04:47:00.876Z,114.6714
2018-07-20T04:48:05.449Z,113.9157
2018-07-20T04:49:11.130Z,114.6714
2018-07-20T04:50:16.294Z,113.662
2018-07-20T04:51:21.443Z,114.1667
2018-07-20T04:52:27.089Z,114.6714
2018-07-20T04:53:32.528Z,114.1667
2018-07-20T04:54:38.315Z,114.4203
2018-07-20T04:55:43.453Z,114.4203
2018-07-20T04:56:48.314Z,115.1787
2018-07-20T04:57:53.434Z,114.925
2018-07-20T04:58:58.456Z,115.1787
2018-07-20T05:00:03.062Z,115.4297
2018-07-20T05:01:08.484Z,115.1787
2018-07-20T05:02:13.629Z,115.4297
2018-07-20T05:03:19.133Z,115.1787
2018-07-20T05:04:24.553Z,114.925
2018-07-20T05:05:30.069Z,115.1787
2018-07-20T05:06:35.577Z,115.1787
2018-07-20T05:07:41.007Z,115.8498
2018-07-20T05:08:45.917Z,115.8498
2018-07-20T05:09:51.603Z,115.4297
2018-07-20T05:10:57.049Z,116.6082
2018-07-20T05:12:01.633Z,115.5988
2018-07-20T05:13:06.809Z,115.8498
2018-07-20T05:14:11.967Z,115.5988
2018-07-20T05:15:17.470Z,116.1035
2018-07-20T05:16:22.405Z,115.1787
2018-07-20T05:17:26.990Z,115.8498
2018-07-20T05:18:32.677Z,116.1035
2018-07-20T05:19:38.233Z,115.8498
2018-07-20T05:20:43.722Z,116.1035
2018-07-20T05:21:49.429Z,116.6082
2018-07-20T05:22:54.929Z,116.8618
2018-07-20T05:24:00.234Z,116.1035
2018-07-20T05:25:05.681Z,115.5988
2018-07-20T05:26:11.150Z,115.4297
2018-07-20T05:27:15.445Z,116.8618
2018-07-20T05:28:20.615Z,116.1035
2018-07-20T05:29:25.865Z,116.3572
2018-07-20T05:30:31.136Z,117.3665
2018-07-20T05:31:35.998Z,117.1129
2018-07-20T05:32:42.130Z,117.1129
2018-07-20T05:33:48.218Z,116.8618
2018-07-20T05:34:53.415Z,116.3572
2018-07-20T05:35:58.607Z,117.1129
2018-07-20T05:37:04.096Z,117.3665
2018-07-20T05:38:09.418Z,117.1129
2018-07-20T05:39:15.100Z,117.8712
2018-07-20T05:40:20.772Z,118.0403
2018-07-20T05:41:25.440Z,117.6176
2018-07-20T05:42:31.270Z,117.3665
2018-07-20T05:43:36.738Z,118.545
2018-07-20T05:44:42.174Z,117.6176
2018-07-20T05:45:47.910Z,116.8618
2018-07-20T05:46:53.064Z,117.1129
2018-07-20T05:47:57.651Z,117.3665
2018-07-20T05:49:02.250Z,117.6176
2018-07-20T05:50:07.684Z,117.6176
2018-07-20T05:51:12.921Z,117.6176
2018-07-20T05:52:18.757Z,117.6176
2018-07-20T05:53:24.386Z,117.3665
2018-07-20T05:54:29.788Z,118.0403
2018-07-20T05:55:34.927Z,117.3665
2018-07-20T05:56:40.069Z,117.3665
2018-07-20T05:57:45.645Z,117.3665
2018-07-20T05:58:50.838Z,117.6176
2018-07-20T05:59:56.012Z,117.8712
2018-07-20T06:01:01.416Z,117.6176
2018-07-20T06:02:06.329Z,117.1129
2018-07-20T06:03:11.275Z,117.8712
2018-07-20T06:04:16.377Z,117.6176
2018-07-20T06:05:21.868Z,117.6176
2018-07-20T06:06:27.618Z,117.6176
2018-07-20T06:07:32.763Z,117.6176
2018-07-20T06:08:38.216Z,117.3665
2018-07-20T06:09:43.666Z,117.6176
2018-07-20T06:10:48.525Z,118.2913
2018-07-20T06:11:53.959Z,118.545
2018-07-20T06:12:59.498Z,118.7987
2018-07-20T06:14:04.492Z,118.7987
2018-07-20T06:15:09.731Z,118.0403
2018-07-20T06:16:15.523Z,118.7987
2018-07-20T06:17:20.382Z,117.8712
2018-07-20T06:19:45.447Z,117.8712
2018-07-20T06:20:50.591Z,118.545
2018-07-20T06:21:56.397Z,117.8712
2018-07-20T06:23:01.288Z,118.0403
2018-07-20T06:24:05.959Z,118.0403
2018-07-20T06:25:11.273Z,118.0403
2018-07-20T06:26:16.737Z,117.8712
2018-07-20T06:27:22.169Z,118.545
2018-07-20T06:28:42.480Z,117.6176
2018-07-20T06:29:46.861Z,117.8712
2018-07-20T06:30:52.060Z,119.3034
2018-07-20T06:31:57.248Z,118.0403
2018-07-20T06:33:02.731Z,119.3034
2018-07-20T06:34:08.227Z,117.8712
2018-07-20T06:35:13.149Z,118.2913
2018-07-20T06:36:18.641Z,117.3665
2018-07-20T06:37:24.176Z,118.0403
2018-07-20T06:38:28.773Z,118.2913
2018-07-20T06:39:34.590Z,117.8712
2018-07-20T06:40:39.818Z,117.8712
2018-07-20T06:41:44.848Z,117.8712
2018-07-20T06:42:50.001Z,118.7987
2018-07-20T06:43:55.435Z,119.0497
2018-07-20T06:45:00.687Z,117.8712
2018-07-20T06:46:05.676Z,118.2913
2018-07-20T06:47:10.261Z,118.0403
2018-07-20T06:48:15.186Z,118.0403
2018-07-20T06:49:20.779Z,118.7987
2018-07-20T06:50:25.966Z,118.0403
2018-07-20T06:51:31.710Z,118.545
2018-07-20T06:52:36.844Z,119.0497
2018-07-20T06:53:42.436Z,118.545
2018-07-20T06:54:47.568Z,119.0497
2018-07-20T06:55:52.955Z,118.545
2018-07-20T06:56:58.548Z,118.2913
2018-07-20T06:58:04.089Z,118.7987
2018-07-20T06:59:08.718Z,119.0497
2018-07-20T07:00:14.170Z,119.0497
2018-07-20T07:01:19.621Z,119.3034
2018-07-20T07:02:24.892Z,119.5544
2018-07-20T07:03:30.832Z,119.3034
2018-07-20T07:04:36.313Z,118.7987
2018-07-20T07:05:41.565Z,119.0497
2018-07-20T07:06:46.868Z,119.808
2018-07-20T07:07:52.179Z,119.0497
2018-07-20T07:08:57.085Z,119.808
2018-07-20T07:10:02.583Z,119.0497
2018-07-20T07:11:07.441Z,118.7987
2018-07-20T07:12:12.662Z,119.0497
2018-07-20T07:13:17.823Z,118.7987
2018-07-20T07:14:22.966Z,119.0497
2018-07-20T07:15:28.990Z,119.3034
2018-07-20T07:16:33.873Z,119.808
2018-07-20T07:17:39.152Z,119.0497
2018-07-20T07:18:44.614Z,118.7987
2018-07-20T07:19:49.467Z,119.3034
2018-07-20T07:20:54.952Z,119.808
2018-07-20T07:22:00.475Z,120.4818
2018-07-20T07:23:05.340Z,120.0591
2018-07-20T07:24:10.214Z,119.5544
2018-07-20T07:25:15.943Z,119.808
2018-07-20T07:26:20.804Z,119.3034
2018-07-20T07:27:26.414Z,120.0591
2018-07-20T07:28:30.761Z,120.0591
2018-07-20T07:29:36.165Z,119.808
2018-07-20T07:30:41.840Z,119.808
2018-07-20T07:31:46.813Z,120.0591
2018-07-20T07:32:51.618Z,120.4818
2018-07-20T07:33:57.018Z,120.4818
2018-07-20T07:35:02.184Z,119.808
2018-07-20T07:36:05.960Z,119.0497
2018-07-20T07:37:11.351Z,119.3034
2018-07-20T07:38:16.097Z,118.7987
2018-07-20T07:39:21.591Z,119.3034
2018-07-20T07:40:27.270Z,119.808
2018-07-20T07:41:32.609Z,118.7987
2018-07-20T07:42:38.383Z,118.545
2018-07-20T07:43:43.248Z,119.0497
2018-07-20T07:44:48.463Z,118.545
2018-07-20T07:45:54.020Z,119.5544
2018-07-20T07:46:59.160Z,119.808
2018-07-20T07:48:04.636Z,119.3034
2018-07-20T07:49:10.173Z,120.0591
2018-07-20T07:50:15.134Z,120.0591
2018-07-20T07:51:20.302Z,120.2282
2018-07-20T07:52:25.539Z,119.5544
2018-07-20T07:53:30.714Z,120.0591
2018-07-20T07:54:36.535Z,119.5544
2018-07-20T07:55:41.977Z,119.3034
2018-07-20T07:56:47.208Z,120.2282
2018-07-20T07:57:52.362Z,119.5544
2018-07-20T07:58:57.840Z,120.4818
2018-07-20T08:00:02.452Z,119.808
2018-07-20T08:01:08.229Z,119.5544
2018-07-20T08:02:13.372Z,119.3034
2018-07-20T08:03:18.805Z,120.2282
2018-07-20T08:04:24.199Z,120.2282
2018-07-20T08:05:29.453Z,120.0591
2018-07-20T08:06:34.886Z,119.3034
2018-07-20T08:07:40.336Z,119.808
2018-07-20T08:08:45.486Z,119.5544
2018-07-20T08:09:51.156Z,120.2282
2018-07-20T08:10:57.131Z,120.2282
2018-07-20T08:12:01.751Z,119.5544
2018-07-20T08:13:07.213Z,120.9865
2018-07-20T08:14:12.845Z,119.0497
2018-07-20T08:15:18.127Z,119.808
2018-07-20T08:16:23.878Z,120.2282
2018-07-20T08:17:29.307Z,120.7328
2018-07-20T08:18:35.084Z,120.4818
2018-07-20T08:19:40.539Z,120.4818
2018-07-20T08:20:45.680Z,120.4818
2018-07-20T08:21:51.324Z,120.4818
2018-07-20T08:22:56.610Z,120.4818
2018-07-20T08:24:01.776Z,120.0591
2018-07-20T08:25:06.128Z,120.4818
2018-07-20T08:26:11.015Z,120.7328
2018-07-20T08:27:15.933Z,120.7328
2018-07-20T08:28:22.280Z,120.2282
2018-07-20T08:29:27.106Z,119.808
2018-07-20T08:30:32.847Z,119.5544
2018-07-20T08:31:38.014Z,119.808
2018-07-20T08:32:42.872Z,120.0591
2018-07-20T08:33:48.120Z,120.4818
2018-07-20T08:34:53.549Z,120.7328
2018-07-20T08:35:58.687Z,120.2282
2018-07-20T08:37:04.452Z,120.7328
2018-07-20T08:38:09.327Z,120.7328
2018-07-20T08:39:14.747Z,122.2495
2018-07-20T08:40:20.146Z,121.2402
2018-07-20T08:41:25.162Z,121.7449
2018-07-20T08:42:30.902Z,120.7328
2018-07-20T08:43:36.333Z,121.2402
2018-07-20T08:44:42.343Z,120.7328
2018-07-20T08:45:47.739Z,120.9865
2018-07-20T08:46:53.411Z,121.7449
2018-07-20T08:47:58.532Z,120.9865
2018-07-20T08:49:03.987Z,121.4912
2018-07-20T08:50:09.146Z,121.9985
2018-07-20T08:51:14.640Z,121.7449
2018-07-20T08:52:19.820Z,121.4912
2018-07-20T08:53:25.455Z,120.9865
2018-07-20T08:54:30.851Z,122.2495
2018-07-20T08:55:36.106Z,121.9985
2018-07-20T08:56:40.978Z,121.9985
2018-07-20T08:57:46.175Z,121.9985
2018-07-20T08:58:52.012Z,121.7449
2018-07-20T08:59:57.415Z,122.2495
2018-07-20T09:01:03.171Z,121.9985
2018-07-20T09:02:08.588Z,122.5032
2018-07-20T09:03:14.168Z,120.9865
2018-07-20T09:04:19.313Z,122.5032
2018-07-20T09:05:24.265Z,122.5032
2018-07-20T09:06:29.559Z,121.9985
2018-07-20T09:07:35.000Z,121.7449
2018-07-20T09:08:40.375Z,121.7449
2018-07-20T09:09:45.861Z,121.2402
2018-07-20T09:10:51.003Z,121.9985
2018-07-20T09:11:56.493Z,121.9985
2018-07-20T09:13:02.112Z,122.2495
2018-07-20T09:14:07.247Z,122.7542
2018-07-20T09:15:12.705Z,122.5032
2018-07-20T09:16:18.568Z,122.2495
2018-07-20T09:17:23.725Z,122.2495
2018-07-20T09:18:28.864Z,122.2495
2018-07-20T09:19:34.105Z,122.7542
2018-07-20T09:20:39.862Z,123.177
2018-07-20T09:21:45.482Z,123.428
2018-07-20T09:22:50.396Z,122.5032
2018-07-20T09:23:55.824Z,123.177
2018-07-20T09:25:01.312Z,122.2495
2018-07-20T09:26:06.257Z,122.2495
2018-07-20T09:27:11.405Z,121.7449
2018-07-20T09:28:17.062Z,123.6817
2018-07-20T09:29:22.661Z,122.5032
2018-07-20T09:30:28.498Z,123.0079
2018-07-20T09:31:33.362Z,121.9985
2018-07-20T09:32:38.841Z,121.9985
2018-07-20T09:33:43.981Z,122.5032
2018-07-20T09:34:49.132Z,123.177
2018-07-20T09:35:54.376Z,123.0079
2018-07-20T09:36:58.941Z,123.428
2018-07-20T09:38:03.600Z,123.177
2018-07-20T09:39:08.797Z,123.428
2018-07-20T09:40:14.442Z,123.428
2018-07-20T09:41:19.875Z,123.0079
2018-07-20T09:42:25.513Z,121.9985
2018-07-20T09:43:31.187Z,123.0079
2018-07-20T09:44:36.116Z,123.177
2018-07-20T09:45:42.229Z,121.9985
2018-07-20T09:46:47.368Z,123.428
2018-07-20T09:47:52.020Z,123.177
2018-07-20T09:48:57.320Z,123.428
2018-07-20T09:50:02.431Z,123.177
2018-07-20T09:51:07.316Z,123.428
2018-07-20T09:52:12.813Z,123.177
2018-07-20T09:53:17.970Z,123.428
2018-07-20T09:54:22.028Z,123.6817
2018-07-20T09:55:42.347Z,123.9353
2018-07-20T09:56:47.220Z,124.44
2018-07-20T09:57:52.519Z,123.428
2018-07-20T09:58:57.404Z,124.44
2018-07-20T10:00:02.824Z,124.44
2018-07-20T10:01:07.659Z,124.1864
2018-07-20T10:02:13.149Z,124.1864
2018-07-20T10:03:18.575Z,124.44
2018-07-20T10:04:24.411Z,124.44
2018-07-20T10:05:28.982Z,124.6937
2018-07-20T10:06:34.393Z,123.6817
2018-07-20T10:07:39.823Z,123.9353
2018-07-20T10:08:44.704Z,123.6817
2018-07-20T10:09:50.178Z,124.6937
2018-07-20T10:10:55.318Z,124.6937
2018-07-20T10:12:00.194Z,124.6937
2018-07-20T10:13:05.655Z,124.1864
2018-07-20T10:14:10.560Z,125.1984
2018-07-20T10:15:15.235Z,125.1984
2018-07-20T10:16:20.660Z,124.9447
2018-07-20T10:17:26.091Z,125.1984
2018-07-20T10:18:31.354Z,124.9447
2018-07-20T10:19:36.237Z,125.452
2018-07-20T10:20:41.715Z,126.0413
2018-07-20T10:21:47.400Z,125.6185
2018-07-20T10:22:52.550Z,125.1984
2018-07-20T10:23:57.822Z,125.6185
2018-07-20T10:25:03.222Z,126.0413
2018-07-20T10:26:07.804Z,125.8722
2018-07-20T10:27:13.232Z,125.452
2018-07-20T10:28:18.688Z,127.0506
2018-07-20T10:29:23.806Z,126.7996
2018-07-20T10:30:29.037Z,127.3043
2018-07-20T10:31:34.557Z,127.0506
2018-07-20T10:32:39.143Z,126.0413
2018-07-20T10:33:44.287Z,126.7996
2018-07-20T10:34:49.164Z,127.3043
2018-07-20T10:35:54.082Z,125.6185
2018-07-20T10:36:59.708Z,125.6185
2018-07-20T10:38:05.140Z,127.0506
2018-07-20T10:39:10.067Z,126.7996
2018-07-20T10:40:15.032Z,126.1258
2018-07-20T10:41:19.897Z,126.1258
2018-07-20T10:42:40.456Z,126.1258
2018-07-20T10:43:45.606Z,125.8722
2018-07-20T10:44:51.037Z,127.3043
2018-07-20T10:45:56.767Z,126.7996
2018-07-20T10:47:02.208Z,125.8722
2018-07-20T10:48:07.231Z,127.0506
2018-07-20T10:49:12.770Z,125.8722
2018-07-20T10:50:17.963Z,127.3043
2018-07-20T10:51:23.113Z,125.8722
2018-07-20T10:52:28.764Z,126.2949
2018-07-20T10:53:33.964Z,126.2949
2018-07-20T10:54:39.519Z,126.2949
2018-07-20T10:55:44.669Z,126.2949
2018-07-20T10:56:49.896Z,127.0506
2018-07-20T10:57:55.317Z,127.0506
2018-07-20T10:59:00.745Z,127.0506
2018-07-20T11:00:05.898Z,128.3163
2018-07-20T11:01:11.077Z,127.558
2018-07-20T11:02:16.104Z,127.558
2018-07-20T11:03:21.286Z,127.3043
2018-07-20T11:04:26.385Z,126.7996
2018-07-20T11:05:31.244Z,127.558
2018-07-20T11:06:36.949Z,127.558
2018-07-20T11:07:42.462Z,127.558
2018-07-20T11:08:47.378Z,128.0626
2018-07-20T11:09:51.978Z,127.809
2018-07-20T11:10:57.415Z,127.558
2018-07-20T11:12:02.769Z,127.3043
2018-07-20T11:13:07.938Z,127.558
2018-07-20T11:14:13.146Z,128.0626
2018-07-20T11:15:18.583Z,128.0626
2018-07-20T11:16:23.559Z,127.558
2018-07-20T11:17:29.345Z,128.0626
2018-07-20T11:18:34.905Z,128.57
2018-07-20T11:19:40.064Z,126.7996
2018-07-20T11:20:45.904Z,128.0626
2018-07-20T11:21:51.397Z,128.0626
2018-07-20T11:22:56.907Z,127.558
2018-07-20T11:24:01.801Z,127.558
2018-07-20T11:25:06.800Z,128.3163
2018-07-20T11:26:11.958Z,127.558
2018-07-20T11:27:17.387Z,128.7364
2018-07-20T11:28:23.144Z,128.0626
2018-07-20T11:29:28.686Z,128.3163
2018-07-20T11:30:34.111Z,128.57
2018-07-20T11:31:39.542Z,128.3163
2018-07-20T11:32:44.926Z,127.809
2018-07-20T11:33:50.929Z,128.57
2018-07-20T11:34:56.385Z,128.0626
2018-07-20T11:36:01.530Z,127.3043
2018-07-20T11:37:06.754Z,128.57
2018-07-20T11:38:11.891Z,127.809
2018-07-20T11:39:17.033Z,128.7364
2018-07-20T11:40:22.722Z,128.57
2018-07-20T11:41:28.240Z,128.0626
2018-07-20T11:42:33.785Z,128.57
2018-07-20T11:43:38.879Z,128.57
2018-07-20T11:44:43.840Z,128.9901
2018-07-20T11:45:49.722Z,129.7484
2018-07-20T11:46:55.195Z,128.57
2018-07-20T11:48:00.345Z,129.4948
2018-07-20T11:49:06.183Z,129.9176
2018-07-20T11:50:10.791Z,129.4948
2018-07-20T11:51:15.761Z,128.9901
2018-07-20T11:52:20.588Z,129.2438
2018-07-20T11:53:25.769Z,128.3163
2018-07-20T11:54:31.311Z,129.2438
2018-07-20T11:55:36.810Z,129.2438
2018-07-20T11:56:41.706Z,130.0021
2018-07-20T11:57:47.381Z,129.4948
2018-07-20T11:58:52.605Z,129.2438
2018-07-20T11:59:58.021Z,129.2438
2018-07-20T12:01:02.894Z,130.2558
2018-07-20T12:02:07.490Z,130.6759
2018-07-20T12:03:12.946Z,130.4222
2018-07-20T12:04:18.648Z,130.9296
2018-07-20T12:05:23.240Z,130.6759
2018-07-20T12:06:29.024Z,130.2558
2018-07-20T12:07:34.180Z,130.9296
2018-07-20T12:08:39.325Z,131.4342
2018-07-20T12:09:44.817Z,131.6879
2018-07-20T12:10:49.398Z,130.9296
2018-07-20T12:11:54.622Z,130.6759
2018-07-20T12:13:00.318Z,131.6879
2018-07-20T12:14:05.193Z,131.1832
2018-07-20T12:15:10.437Z,131.4342
2018-07-20T12:16:15.927Z,130.6759
2018-07-20T12:17:21.069Z,131.1832
2018-07-20T12:18:41.214Z,131.1832
2018-07-20T12:19:46.091Z,131.1832
2018-07-20T12:20:51.047Z,131.1832
2018-07-20T12:21:55.927Z,131.9416
2018-07-20T12:23:01.105Z,131.9416
2018-07-20T12:24:05.968Z,131.9416
2018-07-20T12:25:11.115Z,131.9416
2018-07-20T12:26:16.295Z,131.6879
2018-07-20T12:27:21.732Z,132.1926
2018-07-20T12:28:26.945Z,131.9416
2018-07-20T12:29:31.888Z,132.1926
2018-07-20T12:30:37.286Z,132.6999
2018-07-20T12:31:42.523Z,132.1926
2018-07-20T12:32:47.788Z,132.6999
2018-07-20T12:33:53.050Z,132.4462
2018-07-20T12:34:58.534Z,133.2046
2018-07-20T12:36:03.557Z,132.6999
2018-07-20T12:37:08.785Z,133.2046
2018-07-20T12:38:13.927Z,132.6999
2018-07-20T12:39:19.169Z,133.2046
2018-07-20T12:40:24.733Z,132.9536
2018-07-20T12:41:29.876Z,132.6999
2018-07-20T12:42:35.620Z,133.2046
2018-07-20T12:43:40.808Z,132.9536
2018-07-20T12:44:45.977Z,132.1926
2018-07-20T12:45:51.748Z,132.9536
2018-07-20T12:46:56.913Z,132.6999
2018-07-20T12:48:01.778Z,132.6999
2018-07-20T12:49:06.772Z,132.6999
2018-07-20T12:50:12.338Z,132.6999
2018-07-20T12:51:17.823Z,132.6999
2018-07-20T12:52:22.424Z,133.4583
2018-07-20T12:53:27.650Z,132.4462
2018-07-20T12:54:32.601Z,132.9536